createdAt,value
2022-11-17T00:01:59.480Z,22.20
2022-11-17T00:04:29.973Z,23.07
2022-11-17T00:06:57.991Z,20.70
2022-11-17T00:09:25.862Z,21.00
2022-11-17T00:12:11.375Z,19.57
2022-11-17T00:14:40.889Z,21.20
2022-11-17T00:17:10.438Z,22.37
2022-11-17T00:19:57.733Z,22.43
2022-11-17T00:22:25.531Z,22.10
2022-11-17T00:24:53.368Z,21.20
2022-11-17T00:27:21.358Z,24.27
2022-11-17T00:29:48.997Z,23.87
2022-11-17T00:32:34.768Z,19.43
2022-11-17T00:35:04.011Z,21.73
2022-11-17T00:37:34.761Z,20.87
2022-11-17T00:40:02.519Z,22.30
2022-11-17T00:42:30.158Z,21.40
2022-11-17T00:44:58.043Z,20.07
2022-11-17T00:47:26.012Z,22.10
2022-11-17T00:49:53.641Z,19.93
2022-11-17T00:52:23.013Z,19.57
2022-11-17T00:54:50.807Z,21.30
2022-11-17T00:57:18.923Z,20.50
2022-11-17T00:59:46.603Z,19.90
2022-11-17T01:02:14.517Z,21.73
2022-11-17T01:04:42.581Z,21.40
2022-11-17T01:07:10.724Z,22.70
2022-11-17T01:09:39.937Z,18.53
2022-11-17T01:12:08.133Z,19.20
2022-11-17T01:14:35.836Z,22.10
2022-11-17T01:17:03.771Z,19.53
2022-11-17T01:19:31.614Z,21.80
2022-11-17T01:21:59.589Z,20.40
2022-11-17T01:24:27.553Z,23.47
2022-11-17T01:26:56.891Z,21.93
2022-11-17T01:29:24.901Z,25.27
2022-11-17T01:31:53.315Z,22.60
2022-11-17T01:34:21.269Z,18.40
2022-11-17T01:37:09.157Z,17.30
2022-11-17T01:39:37.276Z,20.53
2022-11-17T01:42:12.274Z,20.23
2022-11-17T01:45:07.243Z,17.70
2022-11-17T01:47:40.848Z,18.43
2022-11-17T01:50:11.440Z,18.50
2022-11-17T01:52:41.021Z,18.70
2022-11-17T01:55:09.697Z,23.00
2022-11-17T01:57:40.649Z,20.93
2022-11-17T02:00:09.391Z,18.97
2022-11-17T02:02:37.920Z,19.57
2022-11-17T02:05:08.478Z,20.87
2022-11-17T02:07:37.864Z,17.63
2022-11-17T02:10:06.313Z,19.17
2022-11-17T02:12:35.170Z,16.50
2022-11-17T02:15:05.311Z,17.47
2022-11-17T02:17:36.073Z,18.97
2022-11-17T02:20:06.783Z,16.47
2022-11-17T02:22:41.874Z,18.20
2022-11-17T02:25:27.150Z,16.50
2022-11-17T02:28:02.105Z,16.87
2022-11-17T02:30:34.889Z,21.70
2022-11-17T02:33:04.254Z,18.17
2022-11-17T02:35:37.772Z,17.97
2022-11-17T02:38:09.336Z,17.90
2022-11-17T02:40:40.630Z,18.23
2022-11-17T02:43:28.884Z,18.30
2022-11-17T02:45:59.757Z,22.80
2022-11-17T02:48:29.137Z,18.00
2022-11-17T02:50:56.929Z,22.43
2022-11-17T02:53:25.525Z,21.70
2022-11-17T02:55:53.765Z,18.80
2022-11-17T02:58:23.077Z,19.37
2022-11-17T03:00:58.225Z,19.27
2022-11-17T03:03:34.452Z,19.70
2022-11-17T03:06:09.774Z,20.70
2022-11-17T03:08:41.198Z,19.50
2022-11-17T03:11:10.062Z,18.10
2022-11-17T03:13:44.931Z,20.17
2022-11-17T03:16:17.516Z,17.13
2022-11-17T03:18:50.511Z,17.57
2022-11-17T03:21:21.176Z,21.40
2022-11-17T03:23:50.779Z,16.60
2022-11-17T03:26:21.917Z,18.93
2022-11-17T03:28:51.240Z,17.43
2022-11-17T03:31:20.613Z,17.47
2022-11-17T03:33:49.715Z,21.90
2022-11-17T03:36:19.391Z,20.13
2022-11-17T03:38:50.352Z,18.03
2022-11-17T03:41:19.490Z,18.53
2022-11-17T03:43:51.889Z,17.47
2022-11-17T03:46:22.706Z,20.30
2022-11-17T03:48:53.011Z,18.13
2022-11-17T03:51:22.030Z,18.57
2022-11-17T03:53:50.557Z,22.90
2022-11-17T03:56:24.865Z,21.00
2022-11-17T03:58:55.766Z,19.03
2022-11-17T04:01:25.731Z,23.83
2022-11-17T04:03:53.769Z,18.53
2022-11-17T04:06:21.782Z,18.67
2022-11-17T04:08:49.746Z,21.07
2022-11-17T04:11:34.988Z,19.90
2022-11-17T04:14:20.131Z,19.33
2022-11-17T04:16:49.568Z,18.17
2022-11-17T04:19:17.275Z,18.80
2022-11-17T04:21:45.276Z,19.03
2022-11-17T04:24:12.929Z,21.27
2022-11-17T04:26:58.134Z,20.73
2022-11-17T04:29:25.804Z,18.50
2022-11-17T04:31:54.934Z,20.97
2022-11-17T04:34:23.192Z,20.13
2022-11-17T04:36:50.907Z,21.63
2022-11-17T04:39:18.644Z,21.00
2022-11-17T04:41:54.262Z,20.00
2022-11-17T04:44:22.917Z,21.53
2022-11-17T04:46:50.993Z,19.37
2022-11-17T04:49:20.631Z,22.80
2022-11-17T04:51:48.599Z,21.70
2022-11-17T04:54:17.815Z,21.10
2022-11-17T04:56:46.358Z,22.40
2022-11-17T04:59:14.047Z,19.67
2022-11-17T05:01:42.042Z,20.50
2022-11-17T05:04:10.533Z,21.00
2022-11-17T05:06:40.504Z,20.83
2022-11-17T05:09:09.438Z,21.90
2022-11-17T05:11:55.122Z,23.60
2022-11-17T05:14:23.620Z,24.83
2022-11-17T05:17:10.393Z,22.33
2022-11-17T05:19:39.885Z,24.40
2022-11-17T05:22:24.186Z,22.13
2022-11-17T05:24:51.835Z,21.60
2022-11-17T05:27:19.520Z,21.87
2022-11-17T05:29:47.533Z,23.20
2022-11-17T05:32:15.278Z,25.47
2022-11-17T05:34:42.904Z,21.20
2022-11-17T05:37:12.151Z,20.27
2022-11-17T05:39:39.847Z,23.20
2022-11-17T05:42:07.454Z,20.30
2022-11-17T05:44:35.217Z,21.53
2022-11-17T05:47:02.801Z,19.83
2022-11-17T05:49:31.107Z,21.27
2022-11-17T05:51:58.847Z,21.80
2022-11-17T05:54:27.925Z,20.80
2022-11-17T05:56:57.595Z,23.60
2022-11-17T05:59:28.431Z,23.90
2022-11-17T06:02:01.408Z,21.77
2022-11-17T06:04:29.625Z,21.30
2022-11-17T06:06:59.626Z,22.40
2022-11-17T06:09:29.703Z,22.00
2022-11-17T06:12:01.081Z,21.73
2022-11-17T06:14:33.537Z,23.27
2022-11-17T06:17:03.437Z,23.27
2022-11-17T06:19:33.964Z,21.83
2022-11-17T06:22:12.089Z,20.40
2022-11-17T06:24:43.015Z,20.83
2022-11-17T06:27:11.112Z,21.83
2022-11-17T06:29:43.977Z,18.90
2022-11-17T06:32:13.951Z,19.57
2022-11-17T06:34:41.797Z,28.47
2022-11-17T06:37:11.195Z,21.20
2022-11-17T06:39:39.209Z,20.87
2022-11-17T06:42:08.302Z,19.37
2022-11-17T06:44:35.883Z,21.87
2022-11-17T06:47:03.605Z,19.90
2022-11-17T06:49:31.675Z,20.80
2022-11-17T06:51:59.318Z,20.20
2022-11-17T06:54:27.825Z,27.73
2022-11-17T06:56:55.854Z,20.97
2022-11-17T06:59:25.705Z,20.13
2022-11-17T07:01:53.408Z,19.50
2022-11-17T07:04:21.316Z,20.03
2022-11-17T07:06:48.988Z,19.73
2022-11-17T07:09:16.628Z,19.23
2022-11-17T07:11:45.489Z,19.93
2022-11-17T07:14:13.265Z,19.10
2022-11-17T07:16:43.925Z,19.77
2022-11-17T07:19:13.242Z,26.80
2022-11-17T07:21:41.005Z,20.70
2022-11-17T07:24:08.951Z,20.37
2022-11-17T07:26:36.926Z,19.70
2022-11-17T07:29:04.658Z,18.03
2022-11-17T07:31:32.339Z,18.10
2022-11-17T07:34:01.870Z,21.97
2022-11-17T07:36:29.522Z,18.00
2022-11-17T07:38:57.434Z,18.83
2022-11-17T07:41:25.187Z,18.93
2022-11-17T07:43:52.809Z,17.80
2022-11-17T07:46:20.452Z,18.47
2022-11-17T07:48:48.622Z,18.07
2022-11-17T07:51:17.661Z,18.27
2022-11-17T07:53:45.565Z,18.13
2022-11-17T07:56:13.678Z,20.80
2022-11-17T07:58:42.288Z,19.97
2022-11-17T08:01:11.186Z,18.47
2022-11-17T08:03:39.290Z,17.63
2022-11-17T08:06:07.584Z,16.40
2022-11-17T08:08:37.862Z,18.10
2022-11-17T08:11:07.180Z,17.13
2022-11-17T08:13:35.251Z,17.70
2022-11-17T08:16:03.241Z,18.30
2022-11-17T08:18:31.415Z,19.87
2022-11-17T08:21:02.431Z,18.83
2022-11-17T08:23:30.230Z,22.80
2022-11-17T08:25:59.972Z,16.80
2022-11-17T08:28:27.710Z,17.77
2022-11-17T08:30:55.790Z,18.30
2022-11-17T08:33:23.761Z,21.40
2022-11-17T08:35:51.413Z,18.03
2022-11-17T08:38:19.315Z,18.67
2022-11-17T08:40:47.850Z,18.83
2022-11-17T08:43:16.859Z,17.70
2022-11-17T08:45:44.521Z,20.73
2022-11-17T08:48:12.625Z,18.00
2022-11-17T08:50:40.345Z,18.87
2022-11-17T08:53:12.642Z,19.00
2022-11-17T08:55:41.398Z,19.00
2022-11-17T08:58:09.317Z,19.70
2022-11-17T09:00:38.748Z,17.90
2022-11-17T09:03:07.424Z,19.07
2022-11-17T09:05:37.606Z,22.00
2022-11-17T09:08:38.035Z,31.70
2022-11-17T09:10:55.010Z,23.73
2022-11-17T09:13:23.335Z,20.57
2022-11-17T09:15:52.550Z,22.73
2022-11-17T09:18:22.203Z,19.40
2022-11-17T09:20:49.846Z,23.90
2022-11-17T09:23:17.873Z,20.57
2022-11-17T09:25:45.772Z,20.90
2022-11-17T09:28:13.329Z,23.00
2022-11-17T09:30:41.469Z,22.13
2022-11-17T09:33:10.641Z,23.17
2022-11-17T09:35:38.430Z,23.87
2022-11-17T09:38:06.067Z,23.77
2022-11-17T09:40:37.867Z,22.23
2022-11-17T09:43:08.354Z,25.30
2022-11-17T09:45:38.899Z,23.80
2022-11-17T09:48:39.608Z,24.60
2022-11-17T09:51:00.870Z,24.63
2022-11-17T09:53:30.575Z,23.00
2022-11-17T09:55:59.023Z,23.90
2022-11-17T09:58:38.369Z,22.37
2022-11-17T10:01:11.684Z,24.97
2022-11-17T10:03:45.437Z,25.00
2022-11-17T10:06:18.076Z,27.43
2022-11-17T10:08:51.409Z,24.43
2022-11-17T10:11:34.859Z,26.40
2022-11-17T10:14:04.128Z,23.47
2022-11-17T10:16:32.122Z,27.23
2022-11-17T10:18:59.739Z,26.30
2022-11-17T10:21:31.906Z,23.93
2022-11-17T10:24:00.342Z,24.83
2022-11-17T10:26:28.135Z,25.40
2022-11-17T10:29:08.692Z,23.97
2022-11-17T10:31:43.689Z,24.77
2022-11-17T10:34:12.764Z,30.03
2022-11-17T10:36:48.788Z,27.20
2022-11-17T10:39:31.821Z,25.23
2022-11-17T10:41:59.538Z,22.50
2022-11-17T10:44:30.003Z,21.60
2022-11-17T10:47:02.320Z,25.40
2022-11-17T10:49:33.556Z,24.67
2022-11-17T10:52:07.207Z,25.50
2022-11-17T10:54:34.998Z,26.17
2022-11-17T10:57:05.932Z,22.33
2022-11-17T10:59:34.554Z,20.57
2022-11-17T11:02:21.147Z,27.00
2022-11-17T11:04:49.018Z,21.80
2022-11-17T11:07:20.792Z,24.50
2022-11-17T11:09:50.850Z,21.33
2022-11-17T11:12:21.552Z,22.43
2022-11-17T11:14:52.232Z,22.70
2022-11-17T11:17:20.898Z,23.63
2022-11-17T11:19:52.248Z,21.27
2022-11-17T11:22:27.676Z,24.03
2022-11-17T11:24:59.143Z,26.47
2022-11-17T11:27:38.493Z,23.10
2022-11-17T11:30:07.495Z,21.00
2022-11-17T11:32:41.753Z,22.73
2022-11-17T11:35:33.271Z,22.50
2022-11-17T11:38:07.430Z,24.73
2022-11-17T11:40:37.384Z,20.67
2022-11-17T11:43:09.873Z,26.53
2022-11-17T11:45:43.483Z,19.67
2022-11-17T11:48:15.416Z,19.80
2022-11-17T11:50:48.437Z,25.43
2022-11-17T11:53:20.322Z,20.50
2022-11-17T11:55:50.543Z,26.73
2022-11-17T11:58:20.639Z,22.70
2022-11-17T12:00:50.222Z,20.50
2022-11-17T12:03:22.872Z,20.23
2022-11-17T12:05:57.817Z,21.47
2022-11-17T12:08:29.940Z,23.40
2022-11-17T12:11:00.497Z,21.10
2022-11-17T12:13:28.300Z,25.20
2022-11-17T12:16:17.222Z,19.43
2022-11-17T12:18:45.059Z,19.20
2022-11-17T12:21:12.910Z,20.70
2022-11-17T12:23:54.567Z,31.20
2022-11-17T12:26:24.283Z,21.60
2022-11-17T12:29:22.033Z,19.33
2022-11-17T12:31:52.273Z,20.10
2022-11-17T12:34:22.942Z,26.13
2022-11-17T12:37:09.512Z,20.80
2022-11-17T12:39:57.982Z,19.90
2022-11-17T12:42:25.874Z,20.97
2022-11-17T12:44:57.592Z,21.97
2022-11-17T12:47:27.370Z,23.67
2022-11-17T12:50:06.806Z,29.23
2022-11-17T12:52:41.656Z,22.63
2022-11-17T12:55:16.363Z,19.70
2022-11-17T12:57:45.079Z,23.10
2022-11-17T13:00:17.840Z,25.67
2022-11-17T13:03:02.760Z,21.47
2022-11-17T13:05:31.513Z,20.73
2022-11-17T13:08:12.029Z,20.33
2022-11-17T13:10:39.960Z,23.60
2022-11-17T13:13:11.433Z,19.10
2022-11-17T13:15:39.768Z,19.03
2022-11-17T13:18:19.366Z,23.80
2022-11-17T13:20:48.914Z,18.23
2022-11-17T13:23:19.880Z,20.70
2022-11-17T13:29:41.432Z,22.53
2022-11-17T13:32:20.239Z,20.00
2022-11-17T13:34:57.207Z,22.90
2022-11-17T13:37:27.234Z,19.20
2022-11-17T13:39:55.835Z,19.30
2022-11-17T13:42:24.878Z,18.93
2022-11-17T13:44:53.965Z,25.20
2022-11-17T13:47:21.743Z,29.43
2022-11-17T13:49:49.474Z,22.27
2022-11-17T13:52:35.226Z,22.70
2022-11-17T13:55:08.362Z,18.83
2022-11-17T13:57:36.070Z,20.67
2022-11-17T14:00:05.480Z,20.43
2022-11-17T14:02:37.056Z,24.80
2022-11-17T14:05:23.118Z,19.07
2022-11-17T14:07:52.990Z,18.80
2022-11-17T14:10:31.964Z,18.87
2022-11-17T14:13:29.991Z,18.87
2022-11-17T14:15:59.547Z,23.10
2022-11-17T14:18:31.608Z,20.40
2022-11-17T14:21:09.662Z,25.00
2022-11-17T14:23:38.901Z,20.70
2022-11-17T14:26:07.186Z,20.40
2022-11-17T14:28:34.798Z,21.77
2022-11-17T14:31:02.481Z,23.53
2022-11-17T14:33:30.125Z,20.03
2022-11-17T14:36:00.263Z,18.93
2022-11-17T14:38:28.687Z,23.83
2022-11-17T14:40:58.076Z,20.83
2022-11-17T14:43:25.733Z,21.27
2022-11-17T14:45:53.594Z,23.40
2022-11-17T14:48:23.018Z,20.17
2022-11-17T14:50:56.161Z,21.07
2022-11-17T14:53:23.936Z,20.43
2022-11-17T14:55:51.576Z,19.13
2022-11-17T14:58:21.093Z,21.30
2022-11-17T15:00:48.907Z,19.30
2022-11-17T15:03:16.780Z,19.90
2022-11-17T15:05:45.423Z,20.53
2022-11-17T15:08:13.248Z,18.87
2022-11-17T15:10:43.694Z,19.23
2022-11-17T15:13:11.360Z,20.10
2022-11-17T15:15:40.493Z,19.80
2022-11-17T15:18:08.120Z,19.57
2022-11-17T15:20:35.738Z,25.80
2022-11-17T15:23:03.658Z,21.80
2022-11-17T15:25:31.456Z,22.03
2022-11-17T15:27:59.094Z,22.00
2022-11-17T15:30:26.730Z,24.20
2022-11-17T15:32:55.810Z,25.73
2022-11-17T15:35:24.449Z,25.00
2022-11-17T15:37:52.423Z,23.80
2022-11-17T15:40:20.046Z,25.17
2022-11-17T15:42:47.631Z,25.47
2022-11-17T15:45:15.626Z,25.20
2022-11-17T15:47:43.649Z,28.83
2022-11-17T15:50:12.810Z,25.17
2022-11-17T15:53:03.036Z,26.50
2022-11-17T15:55:28.188Z,26.23
2022-11-17T15:57:55.858Z,26.17
2022-11-17T16:00:23.539Z,26.83
2022-11-17T16:02:54.449Z,28.17
2022-11-17T16:05:27.720Z,28.67
2022-11-17T16:07:55.719Z,35.03
2022-11-17T16:10:23.363Z,34.03
2022-11-17T16:12:51.282Z,31.13
2022-11-17T16:15:19.242Z,27.97
2022-11-17T16:17:46.962Z,36.77
2022-11-17T16:20:15.103Z,34.10
2022-11-17T16:22:44.152Z,31.83
2022-11-17T16:25:11.807Z,27.87
2022-11-17T16:27:40.016Z,29.10
2022-11-17T16:30:08.150Z,29.07
2022-11-17T16:32:36.055Z,26.33
2022-11-17T16:35:03.784Z,32.50
2022-11-17T16:37:31.448Z,30.27
2022-11-17T16:40:01.374Z,31.17
2022-11-17T16:42:29.290Z,29.67
2022-11-17T16:44:57.002Z,30.27
2022-11-17T16:47:24.738Z,30.07
2022-11-17T16:49:52.615Z,34.40
2022-11-17T16:52:20.487Z,32.90
2022-11-17T16:54:48.164Z,31.27
2022-11-17T16:57:17.512Z,32.10
2022-11-17T16:59:45.170Z,30.50
2022-11-17T17:02:13.345Z,29.20
2022-11-17T17:04:40.958Z,31.50
2022-11-17T17:07:08.655Z,29.47
2022-11-17T17:09:37.688Z,31.83
2022-11-17T17:12:05.697Z,34.80
2022-11-17T17:14:34.638Z,29.40
2022-11-17T17:17:02.275Z,29.53
2022-11-17T17:19:30.048Z,29.47
2022-11-17T17:21:58.975Z,29.30
2022-11-17T17:24:26.759Z,29.43
2022-11-17T17:26:54.351Z,31.60
2022-11-17T17:29:22.038Z,27.90
2022-11-17T17:31:51.043Z,29.77
2022-11-17T17:34:18.932Z,30.37
2022-11-17T17:36:46.567Z,30.83
2022-11-17T17:39:15.324Z,30.37
2022-11-17T17:41:44.159Z,29.40
2022-11-17T17:44:14.900Z,30.53
2022-11-17T17:46:43.556Z,31.67
2022-11-17T17:49:12.719Z,28.37
2022-11-17T17:51:42.151Z,31.10
2022-11-17T17:54:10.915Z,33.80
2022-11-17T17:56:38.537Z,32.50
2022-11-17T17:59:06.197Z,34.10
2022-11-17T18:01:33.984Z,33.83
2022-11-17T18:04:05.037Z,33.20
2022-11-17T18:06:36.113Z,32.80
2022-11-17T18:09:03.936Z,35.43
2022-11-17T18:11:31.722Z,35.57
2022-11-17T18:13:59.946Z,34.17
2022-11-17T18:16:28.470Z,37.13
2022-11-17T18:18:57.137Z,40.27
2022-11-17T18:21:25.054Z,36.40
2022-11-17T18:23:54.731Z,34.83
2022-11-17T18:26:23.201Z,37.47
2022-11-17T18:28:52.459Z,37.43
2022-11-17T18:31:20.644Z,37.67
2022-11-17T18:33:50.990Z,38.53
2022-11-17T18:36:18.694Z,38.73
2022-11-17T18:38:46.875Z,37.83
2022-11-17T18:41:16.757Z,36.40
2022-11-17T18:43:44.596Z,44.13
2022-11-17T18:46:13.150Z,38.10
2022-11-17T18:48:42.680Z,48.10
2022-11-17T18:51:19.959Z,39.43
2022-11-17T18:53:48.775Z,37.57
2022-11-17T18:56:18.546Z,40.83
2022-11-17T18:58:46.256Z,38.90
2022-11-17T19:01:15.177Z,35.47
2022-11-17T19:03:43.895Z,34.80
2022-11-17T19:06:12.259Z,39.00
2022-11-17T19:08:40.336Z,38.97
2022-11-17T19:11:08.500Z,38.90
2022-11-17T19:13:39.135Z,39.90
2022-11-17T19:16:08.297Z,39.73
2022-11-17T19:18:36.364Z,36.90
2022-11-17T19:21:05.925Z,37.53
2022-11-17T19:23:34.487Z,37.87
2022-11-17T19:26:04.049Z,36.03
2022-11-17T19:28:32.618Z,38.20
2022-11-17T19:31:05.772Z,40.23
2022-11-17T19:33:34.316Z,36.77
2022-11-17T19:36:08.087Z,40.43
2022-11-17T19:38:38.497Z,40.00
2022-11-17T19:41:07.000Z,35.97
2022-11-17T19:43:36.173Z,35.63
2022-11-17T19:46:08.396Z,38.10
2022-11-17T19:48:36.873Z,39.73
2022-11-17T19:51:12.822Z,50.00
2022-11-17T19:53:40.555Z,39.17
2022-11-17T19:56:08.730Z,38.87
2022-11-17T19:58:36.782Z,38.83
2022-11-17T20:01:13.045Z,44.03
2022-11-17T20:03:41.231Z,45.77
2022-11-17T20:06:09.609Z,42.80
2022-11-17T20:08:38.305Z,42.20
2022-11-17T20:11:07.257Z,44.77
2022-11-17T20:13:35.561Z,44.40
2022-11-17T20:16:08.815Z,44.83
2022-11-17T20:18:40.800Z,42.60
2022-11-17T20:21:09.038Z,42.07
2022-11-17T20:23:37.376Z,40.60
2022-11-17T20:26:05.310Z,45.40
2022-11-17T20:28:34.863Z,41.77
2022-11-17T20:31:06.935Z,45.37
2022-11-17T20:33:35.425Z,46.07
2022-11-17T20:36:04.550Z,42.93
2022-11-17T20:38:33.379Z,38.87
2022-11-17T20:41:01.759Z,44.43
2022-11-17T20:43:29.905Z,42.60
2022-11-17T20:45:58.213Z,44.33
2022-11-17T20:48:27.528Z,47.20
2022-11-17T20:50:58.730Z,43.00
2022-11-17T20:53:28.393Z,40.20
2022-11-17T20:55:56.171Z,41.30
2022-11-17T20:58:24.765Z,40.47
2022-11-17T21:00:52.742Z,41.13
2022-11-17T21:03:20.539Z,44.20
2022-11-17T21:05:58.470Z,41.90
2022-11-17T21:08:30.574Z,40.73
2022-11-17T21:10:59.067Z,37.90
2022-11-17T21:13:26.747Z,43.10
2022-11-17T21:16:05.075Z,44.27
2022-11-17T21:18:33.405Z,39.50
2022-11-17T21:21:01.654Z,40.83
2022-11-17T21:23:31.357Z,43.47
2022-11-17T21:25:59.007Z,41.20
2022-11-17T21:28:27.648Z,38.67
2022-11-17T21:31:03.116Z,39.97
2022-11-17T21:33:30.976Z,40.07
2022-11-17T21:36:01.198Z,39.93
2022-11-17T21:38:29.237Z,41.73
2022-11-17T21:41:01.720Z,43.43
2022-11-17T21:43:29.988Z,40.73
2022-11-17T21:46:02.161Z,44.80
2022-11-17T21:48:30.025Z,37.83
2022-11-17T21:50:57.782Z,36.67
2022-11-17T21:53:25.515Z,41.37
2022-11-17T21:55:53.354Z,37.37
2022-11-17T21:58:22.589Z,39.53
2022-11-17T22:00:50.544Z,39.20
2022-11-17T22:03:18.573Z,37.83
2022-11-17T22:05:46.487Z,40.97
2022-11-17T22:08:14.758Z,37.57
2022-11-17T22:10:42.949Z,41.00
2022-11-17T22:13:10.609Z,46.53
2022-11-17T22:15:39.546Z,41.97
2022-11-17T22:18:07.640Z,41.97
2022-11-17T22:20:36.075Z,41.73
2022-11-17T22:23:04.060Z,42.00
2022-11-17T22:25:44.764Z,45.90
2022-11-17T22:28:14.642Z,43.37
2022-11-17T22:30:43.744Z,41.93
2022-11-17T22:33:11.538Z,40.57
2022-11-17T22:35:39.536Z,48.87
2022-11-17T22:38:07.484Z,41.13
2022-11-17T22:40:35.209Z,45.20
2022-11-17T22:43:04.614Z,44.00
2022-11-17T22:45:33.126Z,42.73
2022-11-17T22:48:02.464Z,42.37
2022-11-17T22:50:30.109Z,43.73
2022-11-17T22:52:58.099Z,46.53
2022-11-17T22:55:25.821Z,42.83
2022-11-17T22:57:53.462Z,44.07
2022-11-17T23:00:21.576Z,45.67
2022-11-17T23:02:49.455Z,42.00
2022-11-17T23:05:18.548Z,46.67
2022-11-17T23:07:46.502Z,43.53
2022-11-17T23:10:14.234Z,47.87
2022-11-17T23:12:42.352Z,42.57
2022-11-17T23:15:10.365Z,45.70
2022-11-17T23:17:38.104Z,45.00
2022-11-17T23:20:06.172Z,44.20
2022-11-17T23:22:36.203Z,39.83
2022-11-17T23:25:04.225Z,45.90
2022-11-17T23:27:31.821Z,46.23
2022-11-17T23:29:59.764Z,46.03
2022-11-17T23:32:27.386Z,47.63
2022-11-17T23:34:55.510Z,50.70
2022-11-17T23:37:23.473Z,49.03
2022-11-17T23:39:52.670Z,48.90
2022-11-17T23:42:21.047Z,48.80
2022-11-17T23:44:48.676Z,52.07
2022-11-17T23:47:16.332Z,50.53
2022-11-17T23:49:43.965Z,60.73
2022-11-17T23:52:11.597Z,48.40
2022-11-17T23:54:39.339Z,51.13
2022-11-17T23:57:08.958Z,51.30
2022-11-17T23:59:37.026Z,51.00
